createdAt,value
2022-11-22T00:06:57.343Z,100
2022-11-22T00:21:53.672Z,100
2022-11-22T00:36:50.485Z,100
2022-11-22T00:51:46.310Z,100
2022-11-22T01:06:42.409Z,100
2022-11-22T01:21:38.390Z,100
2022-11-22T01:36:34.489Z,100
2022-11-22T01:51:30.681Z,100
2022-11-22T02:06:27.249Z,100
2022-11-22T02:21:23.307Z,100
2022-11-22T02:36:19.678Z,100
2022-11-22T02:51:15.579Z,100
2022-11-22T03:06:11.958Z,100
2022-11-22T03:21:07.964Z,100
2022-11-22T03:36:04.087Z,100
2022-11-22T03:51:00.303Z,100
2022-11-22T04:05:56.283Z,100
2022-11-22T04:20:52.467Z,100
2022-11-22T04:35:48.960Z,100
2022-11-22T04:50:44.554Z,100
2022-11-22T05:05:40.478Z,100
2022-11-22T05:20:36.445Z,100
2022-11-22T05:35:31.850Z,100
2022-11-22T05:50:27.379Z,100
2022-11-22T06:05:24.208Z,100
2022-11-22T06:20:20.273Z,100
2022-11-22T06:35:16.587Z,100
2022-11-22T06:50:16.247Z,100
2022-11-22T07:05:24.976Z,100
2022-11-22T07:20:05.395Z,100
2022-11-22T07:35:02.323Z,100
2022-11-22T07:49:59.046Z,100
2022-11-22T08:04:55.110Z,100
2022-11-22T08:19:50.992Z,100
2022-11-22T08:34:47.605Z,100
2022-11-22T08:49:43.296Z,100
2022-11-22T09:04:39.255Z,100
2022-11-22T09:19:36.004Z,100
2022-11-22T09:34:32.344Z,100
2022-11-22T09:49:28.884Z,100
2022-11-22T10:04:24.818Z,100
2022-11-22T10:19:20.910Z,100
2022-11-22T10:34:17.252Z,98.63
2022-11-22T10:49:13.672Z,98.7
2022-11-22T11:04:10.220Z,95.77
2022-11-22T11:19:06.365Z,96.9
2022-11-22T11:34:02.611Z,97.7
2022-11-22T11:48:58.447Z,95.91
2022-11-22T12:03:55.019Z,93.07
2022-11-22T12:18:51.012Z,89.16
2022-11-22T12:33:47.731Z,89.13
2022-11-22T12:48:47.284Z,90.5
2022-11-22T13:03:39.616Z,91.58
2022-11-22T13:18:36.061Z,94.95
2022-11-22T13:33:31.688Z,95.42
2022-11-22T13:48:27.736Z,95.23
2022-11-22T14:03:24.191Z,95.24
2022-11-22T14:18:20.220Z,94.39
2022-11-22T14:33:16.610Z,87.22
2022-11-22T14:48:12.917Z,90.73
2022-11-22T15:03:08.738Z,96.03
2022-11-22T16:02:52.676Z,100
2022-11-22T16:17:48.190Z,100
2022-11-22T16:32:44.399Z,100
2022-11-22T16:47:40.532Z,100
2022-11-22T17:02:36.336Z,100
2022-11-22T17:17:32.719Z,100
2022-11-22T17:32:28.749Z,100
2022-11-22T17:47:25.102Z,100
2022-11-22T18:02:22.063Z,100
2022-11-22T18:17:18.099Z,100
2022-11-22T18:32:14.555Z,100
2022-11-22T18:47:11.090Z,100
2022-11-22T19:02:07.495Z,100
2022-11-22T19:17:03.394Z,100
2022-11-22T19:31:59.772Z,100
2022-11-22T19:46:56.181Z,100
2022-11-22T20:01:52.631Z,100
2022-11-22T20:16:48.261Z,100
2022-11-22T20:31:44.678Z,100
2022-11-22T20:46:40.646Z,100
2022-11-22T21:01:36.812Z,100
2022-11-22T21:16:32.743Z,100
2022-11-22T21:31:29.469Z,100
2022-11-22T21:46:25.464Z,100
2022-11-22T23:01:07.050Z,100
2022-11-22T23:16:03.356Z,100
2022-11-22T23:30:59.137Z,100
2022-11-22T23:45:55.268Z,100
